メインページ
METAR-TAF:

METAR-TAF

空港 :

ファアモツ国際空港

トンガタプ島, トンガ

緯度: 21-14S, 経度: 175-09W, 海抜: 38m

現時点の気象観測

当レポートは16分前の10:00(UTC)に作成
の風 3kt
気温 19°C
湿度 88%
気圧 1016 hPa
視程10km以上
高度1800ftの雲はほとんどない
高度12000ftの千切れ雲あり

METAR: NFTF 181000Z 10003KT 9999 FEW018 BKN120 19/17 Q1016

時間: 23:16 (10:16 UTC)

予報

当レポートは5時間12分前の05:04(UTC)に作成
予報は18日の 06時(UTC)から 19日の 06時(UTC)まで有効
東/南東の風 5kt
視程10km以上
高度1700ftの雲はほとんどない
高度10000ftの千切れ雲あり

TAF: NFTF 180504Z 1806/1906 11005KT 9999 FEW017 BKN100

4,000以上の空港の気象観測と天気予報(METAR報とTAF報)

利用可能な観測所は地図上に黄色い丸と赤い丸で示す。

丸の上にカーソルを重ねると観測所名を参照できる。

次にクリックすると気象観測と天気予報を参照できる。

マップの切り替え:黒色「×」印の緑ボタンをクリックして拡大、「-」印の緑ボタンをクリックして縮小、緑色の三角印をクリックして隣りの地図に切り替え


METAR-TAF: